Time;durP1;ratioP1;P1;durP2;ratioP2;P2;SDS_P1;SDS_P2;PMS_P1;PMS_P2;Temp;Humidity;BMP_temperature;BMP_pressure;BME280_temperature;BME280_humidity;BME280_pressure;Samples;Min_cycle;Max_cycle;Signal;HPM_P1;HPM_P2
2022/08/25 01:42:51;;;;;;;3.20;1.30;;;;;;;;;;4668783;28;20045;-81
2022/08/25 01:45:17;;;;;;;2.92;1.38;;;;;;;;;;5007874;28;20034;-81
2022/08/25 01:47:43;;;;;;;2.60;1.30;;;;;;;;;;5010082;28;20487;-82
2022/08/25 01:50:08;;;;;;;2.17;1.23;;;;;;;;;;5010024;28;20026;-84
2022/08/25 01:52:51;;;;;;;2.55;1.50;;;;;;;;;;4992248;28;20036;-83
2022/08/25 01:55:16;;;;;;;4.20;1.40;;;;;;;;;;5009942;28;20083;-82
2022/08/25 01:57:42;;;;;;;2.47;1.50;;;;;;;;;;5010020;28;20049;-82
2022/08/25 02:00:11;;;;;;;4.10;1.40;;;;;;;;;;5009927;28;20029;-82
2022/08/25 02:02:38;;;;;;;7.22;1.50;;;;;;;;;;5009729;28;20102;-82
2022/08/25 02:05:04;;;;;;;5.43;1.50;;;;;;;;;;5009658;28;20037;-82
2022/08/25 02:07:30;;;;;;;4.20;1.50;;;;;;;;;;5009618;28;20026;-82
2022/08/25 02:09:55;;;;;;;4.60;1.50;;;;;;;;;;4992168;28;20014;-81
2022/08/25 02:12:21;;;;;;;4.13;1.30;;;;;;;;;;5009380;28;20408;-81
2022/08/25 02:14:47;;;;;;;4.35;1.40;;;;;;;;;;5009626;28;20026;-82
2022/08/25 02:17:13;;;;;;;3.40;1.30;;;;;;;;;;5009559;28;20022;-82
2022/08/25 02:19:39;;;;;;;3.35;1.20;;;;;;;;;;5009586;28;20032;-81
2022/08/25 02:22:04;;;;;;;4.13;1.40;;;;;;;;;;5009382;28;20067;-83
2022/08/25 02:24:30;;;;;;;4.68;1.50;;;;;;;;;;5008951;28;20030;-83
2022/08/25 02:26:56;;;;;;;3.40;1.15;;;;;;;;;;5009570;28;20049;-82
2022/08/25 02:29:22;;;;;;;6.93;1.27;;;;;;;;;;5009512;28;20616;-82
2022/08/25 02:31:48;;;;;;;7.75;1.30;;;;;;;;;;5009522;28;20043;-83
2022/08/25 02:34:14;;;;;;;4.80;1.50;;;;;;;;;;5009166;28;20087;-82
2022/08/25 02:36:39;;;;;;;4.22;1.38;;;;;;;;;;5009220;28;20029;-82
2022/08/25 02:39:07;;;;;;;2.83;1.30;;;;;;;;;;5009125;28;20022;-83
2022/08/25 02:41:33;;;;;;;4.20;1.63;;;;;;;;;;5009105;28;20511;-82
2022/08/25 02:44:01;;;;;;;5.43;1.50;;;;;;;;;;5008721;28;20069;-83
2022/08/25 02:46:27;;;;;;;3.42;1.30;;;;;;;;;;5009261;28;20026;-82
2022/08/25 02:48:53;;;;;;;3.15;1.30;;;;;;;;;;5009226;28;20022;-82
2022/08/25 02:51:21;;;;;;;8.68;1.70;;;;;;;;;;5009235;28;20403;-80
2022/08/25 02:53:47;;;;;;;10.63;1.90;;;;;;;;;;5008842;28;20030;-82
2022/08/25 02:56:13;;;;;;;6.47;1.80;;;;;;;;;;5007876;28;20033;-83
2022/08/25 02:58:40;;;;;;;7.18;2.05;;;;;;;;;;5008807;28;20026;-82
2022/08/25 03:01:08;;;;;;;8.25;2.00;;;;;;;;;;5008862;28;20503;-82
2022/08/25 03:03:33;;;;;;;9.55;2.40;;;;;;;;;;5008938;28;20524;-82
2022/08/25 03:05:59;;;;;;;5.50;2.30;;;;;;;;;;5009231;28;20026;-83
2022/08/25 03:08:25;;;;;;;6.63;2.60;;;;;;;;;;5008758;28;20036;-83
2022/08/25 03:10:51;;;;;;;7.78;2.50;;;;;;;;;;5008837;28;20037;-81
2022/08/25 03:13:16;;;;;;;6.95;2.20;;;;;;;;;;5008139;28;20026;-82
2022/08/25 03:15:42;;;;;;;7.20;2.65;;;;;;;;;;5008565;28;20046;-83
2022/08/25 03:18:10;;;;;;;9.68;2.60;;;;;;;;;;5008658;28;20560;-81
2022/08/25 03:20:36;;;;;;;5.90;2.53;;;;;;;;;;5008876;28;20040;-81
2022/08/25 03:23:03;;;;;;;6.88;2.63;;;;;;;;;;5008614;28;20408;-82
2022/08/25 03:28:13;;;;;;;9.18;2.83;;;;;;;;;;5008460;28;20033;-82
2022/08/25 03:30:39;;;;;;;5.95;2.60;;;;;;;;;;5008273;28;20018;-81
2022/08/25 03:33:05;;;;;;;8.32;2.97;;;;;;;;;;5008089;28;20026;-81
2022/08/25 03:35:30;;;;;;;8.13;2.60;;;;;;;;;;5008345;28;20106;-82
2022/08/25 03:37:57;;;;;;;4.00;2.30;;;;;;;;;;5008390;28;20101;-81
2022/08/25 03:40:23;;;;;;;4.43;2.38;;;;;;;;;;5008364;28;20052;-82
2022/08/25 03:42:48;;;;;;;4.30;2.10;;;;;;;;;;5007937;28;20085;-82
2022/08/25 03:45:16;;;;;;;5.90;2.17;;;;;;;;;;5008161;28;20040;-82
2022/08/25 03:47:44;;;;;;;6.30;2.30;;;;;;;;;;5008110;28;20524;-81
2022/08/25 03:50:10;;;;;;;5.32;2.22;;;;;;;;;;5008051;28;20022;-82
2022/08/25 03:52:37;;;;;;;8.32;2.35;;;;;;;;;;5008083;28;20049;-82
2022/08/25 03:55:05;;;;;;;6.97;2.20;;;;;;;;;;5008007;28;20045;-82
2022/08/25 03:57:31;;;;;;;5.88;2.00;;;;;;;;;;5007913;28;20518;-82
2022/08/25 03:59:56;;;;;;;4.65;2.13;;;;;;;;;;5008145;28;20055;-80
2022/08/25 04:02:21;;;;;;;7.50;2.30;;;;;;;;;;5007840;28;20028;-82
2022/08/25 04:04:47;;;;;;;7.70;2.30;;;;;;;;;;5007505;28;20018;-82
2022/08/25 04:07:12;;;;;;;8.70;2.40;;;;;;;;;;5007720;28;20366;-82
2022/08/25 04:09:38;;;;;;;5.10;2.13;;;;;;;;;;5007833;28;20029;-82
2022/08/25 04:12:03;;;;;;;6.60;2.30;;;;;;;;;;5007684;28;20022;-82
2022/08/25 04:14:30;;;;;;;5.70;2.25;;;;;;;;;;5007434;28;20046;-82
2022/08/25 04:16:55;;;;;;;7.68;1.95;;;;;;;;;;5007789;28;20065;-82
2022/08/25 04:19:21;;;;;;;7.07;2.17;;;;;;;;;;5007832;28;20629;-82
2022/08/25 04:21:47;;;;;;;9.18;2.10;;;;;;;;;;5007667;28;20026;-81
2022/08/25 04:24:13;;;;;;;5.95;2.15;;;;;;;;;;5007471;28;20030;-82
2022/08/25 04:26:43;;;;;;;8.85;2.22;;;;;;;;;;4990020;28;20447;-81
2022/08/25 04:29:11;;;;;;;8.73;2.30;;;;;;;;;;5007400;28;20105;-82
2022/08/25 04:31:39;;;;;;;6.97;2.10;;;;;;;;;;5007496;28;20026;-82
2022/08/25 04:34:05;;;;;;;6.47;2.08;;;;;;;;;;5007401;28;20052;-82
2022/08/25 04:36:31;;;;;;;4.68;2.00;;;;;;;;;;5007689;28;20029;-82
2022/08/25 04:38:57;;;;;;;5.68;1.92;;;;;;;;;;5007473;28;20590;-83
2022/08/25 04:41:24;;;;;;;6.32;2.15;;;;;;;;;;5007308;28;20029;-82
2022/08/25 04:43:50;;;;;;;6.35;2.10;;;;;;;;;;5006713;28;20042;-82
2022/08/25 04:46:22;;;;;;;5.25;2.03;;;;;;;;;;5007340;28;20585;-82
2022/08/25 04:48:49;;;;;;;6.97;2.10;;;;;;;;;;5007623;28;20473;-82
2022/08/25 04:51:22;;;;;;;4.53;2.00;;;;;;;;;;5007359;28;20139;-81
2022/08/25 04:53:48;;;;;;;8.00;2.20;;;;;;;;;;5007081;28;20481;-82
2022/08/25 04:56:16;;;;;;;4.45;2.08;;;;;;;;;;5007209;28;20040;-84
2022/08/25 04:58:42;;;;;;;5.72;2.17;;;;;;;;;;5007007;28;20076;-82
2022/08/25 05:01:10;;;;;;;8.80;2.40;;;;;;;;;;5007073;28;20127;-80
2022/08/25 05:03:36;;;;;;;6.85;2.10;;;;;;;;;;5006966;28;20625;-82
2022/08/25 05:06:03;;;;;;;4.85;2.05;;;;;;;;;;5007203;28;20040;-82
2022/08/25 05:08:30;;;;;;;6.45;2.10;;;;;;;;;;5007157;28;20564;-80
2022/08/25 05:10:55;;;;;;;6.78;2.17;;;;;;;;;;5007081;28;20038;-83
2022/08/25 05:13:23;;;;;;;5.15;2.08;;;;;;;;;;5006818;28;20432;-82
2022/08/25 05:15:53;;;;;;;8.90;2.13;;;;;;;;;;5006830;28;20026;-82
2022/08/25 05:18:20;;;;;;;;;;;;;;;;;;5007377;28;20030;-82
2022/08/25 05:20:46;;;;;;;8.23;2.13;;;;;;;;;;5009175;28;19913;-82
2022/08/25 05:23:11;;;;;;;7.35;2.10;;;;;;;;;;5010395;28;20421;-82
2022/08/25 05:25:37;;;;;;;7.07;2.42;;;;;;;;;;5010114;28;20687;-82
2022/08/25 05:28:02;;;;;;;6.95;2.40;;;;;;;;;;5010509;28;20113;-82
2022/08/25 05:30:28;;;;;;;7.53;2.50;;;;;;;;;;5010279;28;20481;-82
2022/08/25 05:32:54;;;;;;;5.80;2.40;;;;;;;;;;5010224;28;20033;-82
2022/08/25 05:35:19;;;;;;;5.95;2.30;;;;;;;;;;5010123;28;20066;-82
2022/08/25 05:37:45;;;;;;;6.05;2.40;;;;;;;;;;5010158;28;20443;-82
2022/08/25 05:40:12;;;;;;;5.68;2.50;;;;;;;;;;5010192;28;20030;-83
2022/08/25 05:42:37;;;;;;;5.88;2.20;;;;;;;;;;5009898;28;20050;-83
2022/08/25 05:45:06;;;;;;;7.03;2.80;;;;;;;;;;5010039;28;20074;-82
2022/08/25 05:47:32;;;;;;;10.48;2.60;;;;;;;;;;5010013;28;20022;-80
2022/08/25 05:49:57;;;;;;;10.13;2.55;;;;;;;;;;5010014;28;20078;-82
2022/08/25 05:52:23;;;;;;;6.28;2.65;;;;;;;;;;5009724;28;20018;-82
2022/08/25 05:54:48;;;;;;;9.35;2.50;;;;;;;;;;5009544;28;20373;-81
2022/08/25 05:57:14;;;;;;;9.95;2.88;;;;;;;;;;4992178;28;20181;-81
2022/08/25 05:59:39;;;;;;;5.93;2.60;;;;;;;;;;5009915;28;20034;-82
2022/08/25 06:04:50;;;;;;;7.30;2.40;;;;;;;;;;5009975;28;20048;-82
2022/08/25 06:07:15;;;;;;;7.68;2.85;;;;;;;;;;5009616;28;20034;-81
2022/08/25 06:09:41;;;;;;;6.93;2.75;;;;;;;;;;5009487;28;20074;-82
2022/08/25 06:12:07;;;;;;;10.55;2.75;;;;;;;;;;5009417;28;20026;-83
2022/08/25 06:14:34;;;;;;;8.40;2.78;;;;;;;;;;5009305;28;20041;-83
2022/08/25 06:16:59;;;;;;;10.32;2.63;;;;;;;;;;5009558;28;20025;-81
2022/08/25 06:19:25;;;;;;;9.95;2.70;;;;;;;;;;5009611;28;20037;-83
2022/08/25 06:21:55;;;;;;;11.48;2.97;;;;;;;;;;5009582;28;20051;-83
2022/08/25 06:24:20;;;;;;;6.73;2.80;;;;;;;;;;5009218;28;20037;-82
2022/08/25 06:26:46;;;;;;;8.27;2.95;;;;;;;;;;5009346;28;20034;-82
2022/08/25 06:29:12;;;;;;;7.25;2.90;;;;;;;;;;5009165;28;20026;-82
2022/08/25 06:31:38;;;;;;;11.57;3.35;;;;;;;;;;5008175;28;20109;-82
2022/08/25 06:34:04;;;;;;;8.60;3.00;;;;;;;;;;5009232;28;20654;-82
2022/08/25 06:36:30;;;;;;;7.75;2.65;;;;;;;;;;5009186;28;20512;-82
2022/08/25 06:38:55;;;;;;;8.55;3.10;;;;;;;;;;5009459;28;20057;-82
2022/08/25 06:41:21;;;;;;;7.72;2.90;;;;;;;;;;5009247;28;20026;-81
2022/08/25 06:43:46;;;;;;;8.07;2.75;;;;;;;;;;5008764;28;20557;-80
2022/08/25 06:46:14;;;;;;;6.15;2.80;;;;;;;;;;5008888;28;20028;-80
2022/08/25 06:48:41;;;;;;;8.13;2.78;;;;;;;;;;5009133;28;20021;-81
2022/08/25 06:51:12;;;;;;;6.15;2.90;;;;;;;;;;5009005;28;20108;-81
2022/08/25 06:53:37;;;;;;;9.15;2.90;;;;;;;;;;5009086;28;20398;-76
2022/08/25 06:56:04;;;;;;;9.65;3.38;;;;;;;;;;5008938;28;20520;-79
2022/08/25 06:58:30;;;;;;;9.05;3.22;;;;;;;;;;5008929;28;20060;-79
2022/08/25 07:00:55;;;;;;;9.77;2.92;;;;;;;;;;4991092;28;20546;-77
2022/08/25 07:03:21;;;;;;;10.85;3.20;;;;;;;;;;5008878;28;20121;-78
2022/08/25 07:05:53;;;;;;;8.10;2.85;;;;;;;;;;5008756;28;20061;-78
2022/08/25 07:08:19;;;;;;;9.95;3.10;;;;;;;;;;5008703;28;20026;-80
2022/08/25 07:10:45;;;;;;;9.00;3.30;;;;;;;;;;5009058;28;20037;-81
2022/08/25 07:13:11;;;;;;;8.48;2.95;;;;;;;;;;5008562;28;20034;-81
2022/08/25 07:15:38;;;;;;;10.73;3.42;;;;;;;;;;5008466;28;20025;-79
2022/08/25 07:18:04;;;;;;;8.43;3.13;;;;;;;;;;5008544;28;20035;-80
2022/08/25 07:20:30;;;;;;;6.13;3.00;;;;;;;;;;5008402;28;20041;-80
2022/08/25 07:22:56;;;;;;;10.85;3.28;;;;;;;;;;5008533;28;20030;-81
2022/08/25 07:25:22;;;;;;;8.20;3.05;;;;;;;;;;5008587;28;20054;-79
2022/08/25 07:27:48;;;;;;;6.50;3.00;;;;;;;;;;5008717;28;20069;-82
2022/08/25 07:30:14;;;;;;;8.75;3.30;;;;;;;;;;5008505;28;20049;-82
2022/08/25 07:32:39;;;;;;;9.93;3.40;;;;;;;;;;5008334;28;20026;-81
2022/08/25 07:35:13;;;;;;;7.72;3.30;;;;;;;;;;5008317;28;20049;-82
2022/08/25 07:37:40;;;;;;;10.02;3.55;;;;;;;;;;5008268;28;20026;-82
2022/08/25 07:40:06;;;;;;;6.68;3.13;;;;;;;;;;5008261;28;20036;-81
2022/08/25 07:42:31;;;;;;;13.38;3.67;;;;;;;;;;5007625;28;20054;-81
2022/08/25 07:44:57;;;;;;;7.97;2.88;;;;;;;;;;5008070;28;20098;-82
2022/08/25 07:47:22;;;;;;;4.75;2.88;;;;;;;;;;5008500;28;20029;-82
2022/08/25 07:49:47;;;;;;;7.15;3.45;;;;;;;;;;5008100;28;20422;-83
2022/08/25 07:52:13;;;;;;;5.47;2.80;;;;;;;;;;5008333;28;20030;-83
2022/08/25 07:54:39;;;;;;;8.23;3.20;;;;;;;;;;5008464;28;20030;-83
2022/08/25 07:57:07;;;;;;;9.05;3.28;;;;;;;;;;5007799;28;20030;-82
2022/08/25 07:59:33;;;;;;;5.50;3.05;;;;;;;;;;5008135;28;20025;-82
2022/08/25 08:01:58;;;;;;;8.10;3.30;;;;;;;;;;5008103;28;20079;-81
2022/08/25 08:04:23;;;;;;;7.70;3.30;;;;;;;;;;5007960;28;20078;-76
2022/08/25 08:06:49;;;;;;;6.95;3.63;;;;;;;;;;5007830;28;20093;-82
2022/08/25 08:09:15;;;;;;;9.15;3.50;;;;;;;;;;5008005;28;20494;-82
2022/08/25 08:11:43;;;;;;;8.18;3.60;;;;;;;;;;5007803;28;20030;-82
2022/08/25 08:14:10;;;;;;;11.30;3.78;;;;;;;;;;5007571;28;20084;-82
2022/08/25 08:16:37;;;;;;;10.27;4.15;;;;;;;;;;5007354;28;20034;-74
2022/08/25 08:19:03;;;;;;;10.52;4.00;;;;;;;;;;5007740;28;20036;-82
2022/08/25 08:21:31;;;;;;;8.98;3.88;;;;;;;;;;4990263;28;20026;-83
2022/08/25 08:23:57;;;;;;;6.70;3.72;;;;;;;;;;5007871;28;20025;-81
2022/08/25 08:26:23;;;;;;;12.05;3.83;;;;;;;;;;5007673;28;20041;-82
2022/08/25 08:28:50;;;;;;;13.68;3.92;;;;;;;;;;5007351;28;20105;-81
2022/08/25 08:31:18;;;;;;;12.77;3.80;;;;;;;;;;5007426;28;20113;-82
2022/08/25 08:33:45;;;;;;;8.30;3.83;;;;;;;;;;5007503;28;20040;-81
2022/08/25 08:36:11;;;;;;;7.88;3.70;;;;;;;;;;5007309;28;20032;-82
2022/08/25 08:38:39;;;;;;;9.27;3.70;;;;;;;;;;5007866;28;20101;-79
2022/08/25 08:44:23;;;;;;;12.70;4.00;;;;;;;;;;5007127;28;20406;-82
2022/08/25 08:47:14;;;;;;;13.52;4.28;;;;;;;;;;5007154;28;20113;-82
2022/08/25 08:49:47;;;;;;;10.75;4.25;;;;;;;;;;5007209;28;20028;-81
2022/08/25 08:52:16;;;;;;;7.15;3.58;;;;;;;;;;5007327;28;20026;-82
2022/08/25 08:54:43;;;;;;;7.60;3.55;;;;;;;;;;5008092;28;20092;-82
2022/08/25 08:57:15;;;;;;;8.85;3.42;;;;;;;;;;5010538;28;20515;-83
2022/08/25 08:59:47;;;;;;;7.30;3.78;;;;;;;;;;5010971;28;20017;-82
2022/08/25 09:02:25;;;;;;;7.80;3.53;;;;;;;;;;4993071;28;20036;-82
2022/08/25 09:04:57;;;;;;;9.77;3.63;;;;;;;;;;5010701;28;20033;-81
2022/08/25 09:07:30;;;;;;;11.38;3.50;;;;;;;;;;5010588;28;20041;-81
2022/08/25 09:09:56;;;;;;;10.25;3.65;;;;;;;;;;5010550;28;20030;-82
2022/08/25 09:12:31;;;;;;;9.07;3.15;;;;;;;;;;5010533;28;20087;-81
2022/08/25 09:15:08;;;;;;;8.77;3.47;;;;;;;;;;5010497;28;20620;-81
2022/08/25 09:18:01;;;;;;;9.30;3.30;;;;;;;;;;5010619;28;20091;-83
2022/08/25 09:21:07;;;;;;;6.68;3.63;;;;;;;;;;5010305;28;20115;-81
2022/08/25 09:23:41;;;;;;;6.70;3.35;;;;;;;;;;5010628;28;20033;-81
2022/08/25 09:26:30;;;;;;;7.68;3.92;;;;;;;;;;5010208;28;20097;-81
2022/08/25 09:29:23;;;;;;;8.63;3.38;;;;;;;;;;5010215;28;20026;-81
2022/08/25 09:31:48;;;;;;;8.05;3.50;;;;;;;;;;5010336;28;20088;-81
2022/08/25 09:34:20;;;;;;;9.65;3.38;;;;;;;;;;5010162;28;20418;-82
2022/08/25 09:36:47;;;;;;;10.25;3.95;;;;;;;;;;5010152;28;20022;-83
2022/08/25 09:39:13;;;;;;;9.82;4.10;;;;;;;;;;4992475;28;20401;-79
2022/08/25 09:41:50;;;;;;;7.13;3.60;;;;;;;;;;5010144;28;20026;-82
2022/08/25 09:44:26;;;;;;;10.02;3.88;;;;;;;;;;5009858;28;20041;-82
2022/08/25 09:47:01;;;;;;;8.70;3.83;;;;;;;;;;5009990;28;20556;-83
2022/08/25 09:49:42;;;;;;;9.40;3.60;;;;;;;;;;5010335;28;20042;-76
2022/08/25 09:52:35;;;;;;;10.07;3.83;;;;;;;;;;5010045;28;20457;-76
2022/08/25 09:55:01;;;;;;;8.18;3.50;;;;;;;;;;4992363;28;20517;-78
2022/08/25 09:57:50;;;;;;;9.45;3.97;;;;;;;;;;5009441;28;20018;-75
2022/08/25 10:00:32;;;;;;;8.17;3.60;;;;;;;;;;5009788;28;20036;-75
2022/08/25 10:03:00;;;;;;;13.18;4.20;;;;;;;;;;5009754;28;20030;-78
2022/08/25 10:05:26;;;;;;;9.93;3.67;;;;;;;;;;5009510;28;20037;-77
2022/08/25 10:07:59;;;;;;;7.28;3.60;;;;;;;;;;5009826;28;20033;-76
2022/08/25 10:10:35;;;;;;;13.05;4.07;;;;;;;;;;5009735;28;20054;-76
2022/08/25 10:13:11;;;;;;;10.70;3.60;;;;;;;;;;5009372;28;20037;-78
2022/08/25 10:15:37;;;;;;;7.68;3.30;;;;;;;;;;4991699;28;20033;-74
2022/08/25 10:18:16;;;;;;;12.95;3.38;;;;;;;;;;5009547;28;20026;-73
2022/08/25 10:20:41;;;;;;;9.73;3.10;;;;;;;;;;5009669;28;20029;-80
2022/08/25 10:23:12;;;;;;;8.95;3.00;;;;;;;;;;5009456;28;20026;-79
2022/08/25 10:25:48;;;;;;;8.73;3.00;;;;;;;;;;5009278;28;20022;-77
2022/08/25 10:28:31;;;;;;;11.30;3.17;;;;;;;;;;5009473;28;20104;-82
2022/08/25 10:31:17;;;;;;;9.40;2.80;;;;;;;;;;5009399;28;20048;-81
2022/08/25 10:34:29;;;;;;;9.15;3.22;;;;;;;;;;5009245;28;20628;-80
2022/08/25 10:37:33;;;;;;;8.65;3.00;;;;;;;;;;5009220;28;20050;-79
2022/08/25 10:40:20;;;;;;;9.43;3.28;;;;;;;;;;5009252;28;20026;-79
2022/08/25 10:43:06;;;;;;;9.50;3.03;;;;;;;;;;5008901;28;20046;-81
2022/08/25 10:45:44;;;;;;;10.30;3.17;;;;;;;;;;5009217;28;20038;-80
2022/08/25 10:48:30;;;;;;;8.65;2.92;;;;;;;;;;4991661;28;20516;-80
2022/08/25 10:51:09;;;;;;;7.97;3.30;;;;;;;;;;5008977;28;20018;-81
2022/08/25 10:54:19;;;;;;;10.85;3.35;;;;;;;;;;5008995;28;20076;-78
2022/08/25 10:56:55;;;;;;;12.65;3.60;;;;;;;;;;5008934;28;20026;-81
2022/08/25 10:59:41;;;;;;;11.10;2.92;;;;;;;;;;5009136;28;20030;-82
2022/08/25 11:02:19;;;;;;;9.85;3.42;;;;;;;;;;5008911;28;20110;-80
2022/08/25 11:05:11;;;;;;;9.52;3.13;;;;;;;;;;5008986;28;20040;-81
2022/08/25 11:07:39;;;;;;;10.68;3.05;;;;;;;;;;5008174;28;20080;-81
2022/08/25 11:10:12;;;;;;;12.15;3.58;;;;;;;;;;5008625;28;20402;-80
2022/08/25 11:12:50;;;;;;;11.07;3.33;;;;;;;;;;5008567;28;20537;-79
2022/08/25 11:15:21;;;;;;;9.15;2.90;;;;;;;;;;5008512;28;20536;-81
2022/08/25 11:17:56;;;;;;;9.82;3.17;;;;;;;;;;5008039;28;20026;-80
2022/08/25 11:20:27;;;;;;;10.85;3.20;;;;;;;;;;5008729;28;20612;-82
2022/08/25 11:23:15;;;;;;;9.43;3.10;;;;;;;;;;5008571;28;20037;-82
2022/08/25 11:25:44;;;;;;;13.52;3.20;;;;;;;;;;5008375;28;20074;-79
2022/08/25 11:28:35;;;;;;;13.48;3.30;;;;;;;;;;5008152;28;20083;-75
2022/08/25 11:31:02;;;;;;;7.95;2.88;;;;;;;;;;5008535;28;20058;-77
2022/08/25 11:33:29;;;;;;;14.30;3.38;;;;;;;;;;5008243;28;20038;-79
2022/08/25 11:36:32;;;;;;;8.05;2.90;;;;;;;;;;4990784;28;20109;-78
2022/08/25 11:39:25;;;;;;;7.95;2.80;;;;;;;;;;5008076;28;20038;-82
2022/08/25 11:42:12;;;;;;;9.52;2.78;;;;;;;;;;5008080;28;20084;-83
2022/08/25 11:44:46;;;;;;;8.25;3.00;;;;;;;;;;4990291;28;20049;-80
2022/08/25 11:47:27;;;;;;;10.02;4.07;;;;;;;;;;5007941;28;20036;-83
2022/08/25 11:50:18;;;;;;;7.63;2.97;;;;;;;;;;5008244;28;20034;-82
2022/08/25 11:52:48;;;;;;;7.72;2.92;;;;;;;;;;5008375;28;20034;-81
2022/08/25 11:55:30;;;;;;;7.00;2.95;;;;;;;;;;4990651;28;20029;-83
2022/08/25 11:58:24;;;;;;;9.00;2.72;;;;;;;;;;5007747;28;20091;-81
2022/08/25 12:00:49;;;;;;;11.35;2.95;;;;;;;;;;5007608;28;20044;-78
2022/08/25 12:03:33;;;;;;;8.88;2.70;;;;;;;;;;5007876;28;20026;-80
2022/08/25 12:06:23;;;;;;;8.48;2.70;;;;;;;;;;5008052;28;20022;-80
2022/08/25 12:08:58;;;;;;;9.00;2.63;;;;;;;;;;5008066;28;20025;-78
2022/08/25 12:11:44;;;;;;;8.85;2.50;;;;;;;;;;5007799;28;20034;-76
2022/08/25 12:14:21;;;;;;;8.63;2.88;;;;;;;;;;5007589;28;20036;-79
2022/08/25 12:16:55;;;;;;;8.85;2.88;;;;;;;;;;5007322;28;20539;-77
2022/08/25 12:19:33;;;;;;;7.43;2.92;;;;;;;;;;5007554;28;20389;-78
2022/08/25 12:22:01;;;;;;;11.15;2.60;;;;;;;;;;4990114;28;20033;-77
2022/08/25 12:25:10;;;;;;;9.45;2.75;;;;;;;;;;5007724;28;20118;-76
2022/08/25 12:27:50;;;;;;;9.65;2.63;;;;;;;;;;5007247;28;20048;-81
2022/08/25 12:30:27;;;;;;;7.47;2.65;;;;;;;;;;4989958;28;20486;-76
2022/08/25 12:33:08;;;;;;;7.43;2.35;;;;;;;;;;5007386;28;20033;-75
2022/08/25 12:36:02;;;;;;;9.18;2.70;;;;;;;;;;5007358;28;20050;-77
2022/08/25 12:38:30;;;;;;;5.55;2.30;;;;;;;;;;5007228;28;20065;-76
2022/08/25 12:41:13;;;;;;;11.43;2.83;;;;;;;;;;5007461;28;20026;-79
2022/08/25 12:43:42;;;;;;;10.02;2.80;;;;;;;;;;5007192;28;20581;-75
2022/08/25 12:46:32;;;;;;;9.63;2.30;;;;;;;;;;5007340;28;20386;-76
2022/08/25 12:49:27;;;;;;;7.72;2.53;;;;;;;;;;5007132;28;20607;-78
2022/08/25 12:52:11;;;;;;;7.88;2.60;;;;;;;;;;5007279;28;20073;-80
2022/08/25 12:54:43;;;;;;;9.05;2.42;;;;;;;;;;5007225;28;20050;-76
2022/08/25 12:57:25;;;;;;;7.50;2.55;;;;;;;;;;4989199;28;20409;-74
2022/08/25 12:59:55;;;;;;;9.45;2.47;;;;;;;;;;4989797;28;20026;-74
2022/08/25 13:03:05;;;;;;;7.47;2.30;;;;;;;;;;4989975;28;20050;-74
2022/08/25 13:05:49;;;;;;;9.55;2.83;;;;;;;;;;5007092;28;20040;-72
2022/08/25 13:08:24;;;;;;;10.35;2.70;;;;;;;;;;5007074;28;20476;-73
2022/08/25 13:10:54;;;;;;;12.02;3.03;;;;;;;;;;5006906;28;20118;-73
2022/08/25 13:13:35;;;;;;;7.93;2.50;;;;;;;;;;5006779;28;20338;-73
2022/08/25 13:16:05;;;;;;;8.32;2.53;;;;;;;;;;5006976;28;20054;-73
2022/08/25 13:18:37;;;;;;;7.43;2.17;;;;;;;;;;5007062;28;20030;-73
2022/08/25 13:21:23;;;;;;;9.20;2.65;;;;;;;;;;5006916;28;20034;-73
2022/08/25 13:23:52;;;;;;;8.45;2.30;;;;;;;;;;5006497;28;20117;-81
2022/08/25 13:26:27;;;;;;;8.48;2.70;;;;;;;;;;5007188;28;20018;-79
2022/08/25 13:28:58;;;;;;;9.57;2.33;;;;;;;;;;5006526;28;20037;-81
2022/08/25 13:31:27;;;;;;;7.32;2.53;;;;;;;;;;5006865;28;20544;-81
2022/08/25 13:33:58;;;;;;;6.97;2.30;;;;;;;;;;5006751;28;20029;-82
2022/08/25 13:39:19;;;;;;;8.80;2.65;;;;;;;;;;5006754;28;20070;-82
2022/08/25 13:41:49;;;;;;;11.32;2.50;;;;;;;;;;5008877;28;20119;-77
2022/08/25 13:44:15;;;;;;;6.43;2.30;;;;;;;;;;5009873;28;20059;-82
2022/08/25 13:46:41;;;;;;;5.68;2.17;;;;;;;;;;5010064;28;20025;-81
2022/08/25 13:49:08;;;;;;;8.13;2.50;;;;;;;;;;5009666;28;20030;-81
2022/08/25 13:51:34;;;;;;;6.90;2.58;;;;;;;;;;5010243;28;20038;-81
2022/08/25 13:54:04;;;;;;;8.82;2.35;;;;;;;;;;5009943;28;20034;-80
2022/08/25 13:56:40;;;;;;;6.05;2.45;;;;;;;;;;5009962;28;20026;-83
2022/08/25 13:59:19;;;;;;;7.45;2.17;;;;;;;;;;5009612;28;20405;-79
2022/08/25 14:01:47;;;;;;;8.00;2.20;;;;;;;;;;5009722;28;20034;-80
2022/08/25 14:04:33;;;;;;;6.63;2.20;;;;;;;;;;5009606;28;20054;-81
2022/08/25 14:07:11;;;;;;;4.90;2.15;;;;;;;;;;5009850;28;20037;-82
2022/08/25 14:09:45;;;;;;;6.88;2.10;;;;;;;;;;5009808;28;20022;-82
2022/08/25 14:12:45;;;;;;;5.78;2.00;;;;;;;;;;5009677;28;20022;-81
2022/08/25 14:15:16;;;;;;;6.40;2.28;;;;;;;;;;5009357;28;20151;-82
2022/08/25 14:17:45;;;;;;;10.98;2.35;;;;;;;;;;4991758;28;20029;-82
2022/08/25 14:20:27;;;;;;;7.78;2.30;;;;;;;;;;5009455;28;20041;-78
2022/08/25 14:23:15;;;;;;;7.07;2.00;;;;;;;;;;4991931;28;20050;-82
2022/08/25 14:25:40;;;;;;;7.85;2.15;;;;;;;;;;5009622;28;20026;-82
2022/08/25 14:28:13;;;;;;;6.30;2.10;;;;;;;;;;5009220;28;20026;-81
2022/08/25 14:30:43;;;;;;;5.68;2.22;;;;;;;;;;5009802;28;20026;-81
2022/08/25 14:33:09;;;;;;;7.05;2.30;;;;;;;;;;5009464;28;20462;-82
2022/08/25 14:35:35;;;;;;;4.97;2.25;;;;;;;;;;5009324;28;20109;-78
2022/08/25 14:38:08;;;;;;;7.90;2.17;;;;;;;;;;5009103;28;20112;-82
2022/08/25 14:40:34;;;;;;;9.45;2.33;;;;;;;;;;5009279;28;20026;-82
2022/08/25 14:42:59;;;;;;;9.13;2.30;;;;;;;;;;5008972;28;20634;-81
2022/08/25 14:45:25;;;;;;;7.22;2.50;;;;;;;;;;5009144;28;20111;-82
2022/08/25 14:47:51;;;;;;;5.88;2.10;;;;;;;;;;5009022;28;20029;-79
2022/08/25 14:50:18;;;;;;;8.57;2.10;;;;;;;;;;5009215;28;20026;-80
2022/08/25 14:52:44;;;;;;;5.50;2.10;;;;;;;;;;5007863;28;20022;-78
2022/08/25 14:55:10;;;;;;;8.23;2.22;;;;;;;;;;5009177;28;20036;-81
2022/08/25 14:57:35;;;;;;;7.35;2.20;;;;;;;;;;5008525;28;20672;-82
2022/08/25 15:00:02;;;;;;;5.47;2.17;;;;;;;;;;5008985;28;20034;-81
2022/08/25 15:02:28;;;;;;;7.82;2.33;;;;;;;;;;5009122;28;20030;-83
2022/08/25 15:05:01;;;;;;;4.57;2.10;;;;;;;;;;5009143;28;20032;-81
2022/08/25 15:10:12;;;;;;;6.70;2.35;;;;;;;;;;5009141;28;20037;-82
2022/08/25 15:12:37;;;;;;;5.60;2.30;;;;;;;;;;5008489;28;20026;-82
2022/08/25 15:15:03;;;;;;;4.30;2.20;;;;;;;;;;5008605;28;20481;-77
2022/08/25 15:17:29;;;;;;;5.63;2.58;;;;;;;;;;5008400;28;20030;-75
2022/08/25 15:19:56;;;;;;;5.65;2.28;;;;;;;;;;5008458;28;20465;-74
2022/08/25 15:22:22;;;;;;;4.85;2.50;;;;;;;;;;5008536;28;20474;-82
2022/08/25 15:24:48;;;;;;;6.78;2.20;;;;;;;;;;5008641;28;20537;-80
2022/08/25 15:27:14;;;;;;;4.72;2.67;;;;;;;;;;5008326;28;20029;-80
2022/08/25 15:29:39;;;;;;;5.30;2.28;;;;;;;;;;5008186;28;20034;-81
2022/08/25 15:32:06;;;;;;;6.40;2.33;;;;;;;;;;5008382;28;20029;-82
2022/08/25 15:34:32;;;;;;;5.82;2.13;;;;;;;;;;5008282;28;20041;-80
2022/08/25 15:37:00;;;;;;;5.38;2.42;;;;;;;;;;5008574;28;20034;-82
2022/08/25 15:39:26;;;;;;;7.22;2.03;;;;;;;;;;5008207;28;20512;-82
2022/08/25 15:41:51;;;;;;;5.90;2.10;;;;;;;;;;5008378;28;20485;-80
2022/08/25 15:44:18;;;;;;;5.10;2.00;;;;;;;;;;5008122;28;20071;-82
2022/08/25 15:46:45;;;;;;;6.13;1.83;;;;;;;;;;5008230;28;20441;-79
2022/08/25 15:49:10;;;;;;;4.05;1.80;;;;;;;;;;5007832;28;20412;-81
2022/08/25 15:51:37;;;;;;;4.50;1.88;;;;;;;;;;5008187;28;20153;-79
2022/08/25 15:54:03;;;;;;;5.93;2.13;;;;;;;;;;5008111;28;20094;-82
2022/08/25 15:56:28;;;;;;;5.60;1.92;;;;;;;;;;5008170;28;20033;-82
2022/08/25 15:58:54;;;;;;;4.25;1.95;;;;;;;;;;5007730;28;20022;-81
2022/08/25 16:01:23;;;;;;;4.53;1.95;;;;;;;;;;5008143;28;20025;-81
2022/08/25 16:03:49;;;;;;;6.13;1.90;;;;;;;;;;5007578;28;20611;-81
2022/08/25 16:06:16;;;;;;;4.32;1.67;;;;;;;;;;5008081;28;20036;-83
2022/08/25 16:08:41;;;;;;;3.90;2.00;;;;;;;;;;5007642;28;20033;-82
2022/08/25 16:11:18;;;;;;;4.03;1.75;;;;;;;;;;5007835;28;20026;-82
2022/08/25 16:13:45;;;;;;;4.47;1.90;;;;;;;;;;5007735;28;20083;-82
2022/08/25 16:16:10;;;;;;;2.25;1.50;;;;;;;;;;5007907;28;20029;-81
2022/08/25 16:18:35;;;;;;;3.88;1.88;;;;;;;;;;5007569;28;20030;-82
2022/08/25 16:21:02;;;;;;;3.08;1.75;;;;;;;;;;5007703;28;20111;-82
2022/08/25 16:23:27;;;;;;;6.28;1.80;;;;;;;;;;5007637;28;20504;-82
2022/08/25 16:25:53;;;;;;;6.15;1.80;;;;;;;;;;5007633;28;20072;-82
2022/08/25 16:28:19;;;;;;;6.32;1.70;;;;;;;;;;5007359;28;20044;-80
2022/08/25 16:30:48;;;;;;;5.93;1.50;;;;;;;;;;5007753;28;20025;-81
2022/08/25 16:33:14;;;;;;;4.13;1.40;;;;;;;;;;5007602;28;20707;-77
2022/08/25 16:35:42;;;;;;;3.25;1.38;;;;;;;;;;5007666;28;20110;-76
2022/08/25 16:38:08;;;;;;;4.53;1.60;;;;;;;;;;5007501;28;20025;-77
2022/08/25 16:40:36;;;;;;;2.97;1.40;;;;;;;;;;5007388;28;20033;-81
2022/08/25 16:43:02;;;;;;;4.13;1.50;;;;;;;;;;5007169;28;20042;-74
2022/08/25 16:45:27;;;;;;;2.55;1.20;;;;;;;;;;5007391;28;20090;-74
2022/08/25 16:47:52;;;;;;;3.50;1.30;;;;;;;;;;5007548;28;20014;-76
2022/08/25 16:50:18;;;;;;;3.60;1.35;;;;;;;;;;5006340;28;20440;-73
2022/08/25 16:55:31;;;;;;;4.43;1.48;;;;;;;;;;5007523;28;20044;-74
2022/08/25 16:57:58;;;;;;;4.25;1.40;;;;;;;;;;5007026;28;20026;-73
2022/08/25 17:00:26;;;;;;;5.03;1.38;;;;;;;;;;5006883;28;20057;-74